Time;durP1;ratioP1;P1;durP2;ratioP2;P2;SDS_P1;SDS_P2;PMS_P1;PMS_P2;Temp;Humidity;BMP_temperature;BMP_pressure;BME280_temperature;BME280_humidity;BME280_pressure;Samples;Min_cycle;Max_cycle;Signal;HPM_P1;HPM_P2
2023/04/04 00:00:04;;;;;;;2.80;1.52;;;;;;;;;;5024074;28;20034;-83
2023/04/04 00:02:49;;;;;;;8.18;1.60;;;;;;;;;;5010629;28;20037;-81
2023/04/04 00:05:34;;;;;;;4.50;1.67;;;;;;;;;;5024617;28;20433;-81
2023/04/04 00:08:20;;;;;;;3.65;1.58;;;;;;;;;;4999170;28;20029;-82
2023/04/04 00:11:06;;;;;;;2.83;1.40;;;;;;;;;;5011111;28;20469;-80
2023/04/04 00:13:51;;;;;;;5.25;1.70;;;;;;;;;;4996818;28;20030;-82
2023/04/04 00:16:36;;;;;;;7.65;3.13;;;;;;;;;;5013042;28;20021;-84
2023/04/04 00:19:21;;;;;;;3.65;1.88;;;;;;;;;;5005032;28;20055;-82
2023/04/04 00:22:07;;;;;;;5.85;2.08;;;;;;;;;;5012424;28;20022;-84
2023/04/04 00:24:52;;;;;;;4.60;1.70;;;;;;;;;;5015617;28;20033;-86
2023/04/04 00:27:37;;;;;;;3.17;1.70;;;;;;;;;;5005111;28;20032;-75
2023/04/04 00:30:23;;;;;;;6.13;1.90;;;;;;;;;;5011050;28;20477;-83
2023/04/04 00:33:08;;;;;;;5.13;2.42;;;;;;;;;;5010900;28;20017;-84
2023/04/04 00:35:53;;;;;;;4.05;2.00;;;;;;;;;;5014143;28;20394;-84
2023/04/04 00:38:38;;;;;;;4.55;2.13;;;;;;;;;;5012199;28;20042;-84
2023/04/04 00:41:24;;;;;;;3.22;1.48;;;;;;;;;;5010974;28;20072;-81
2023/04/04 00:44:10;;;;;;;4.20;1.52;;;;;;;;;;5006906;28;20034;-86
2023/04/04 00:46:55;;;;;;;4.07;1.65;;;;;;;;;;5017562;28;20032;-80
2023/04/04 00:49:40;;;;;;;3.85;1.63;;;;;;;;;;5010507;28;20489;-78
2023/04/04 00:52:26;;;;;;;4.40;2.03;;;;;;;;;;5012214;28;20029;-79
2023/04/04 00:55:11;;;;;;;6.93;1.90;;;;;;;;;;5013685;28;20092;-79
2023/04/04 00:57:57;;;;;;;4.60;1.75;;;;;;;;;;5020073;28;20477;-77
2023/04/04 01:00:42;;;;;;;3.88;1.77;;;;;;;;;;4997165;28;20035;-77
2023/04/04 01:03:28;;;;;;;5.05;1.90;;;;;;;;;;5005965;28;20448;-81
2023/04/04 01:06:14;;;;;;;4.45;2.00;;;;;;;;;;5025072;28;20076;-76
2023/04/04 01:08:59;;;;;;;5.43;1.90;;;;;;;;;;5010942;28;20355;-76
2023/04/04 01:11:45;;;;;;;4.15;1.80;;;;;;;;;;5010328;28;20034;-75
2023/04/04 01:14:30;;;;;;;7.47;2.95;;;;;;;;;;5010946;28;20010;-73
2023/04/04 01:17:16;;;;;;;2.22;1.60;;;;;;;;;;5013330;28;20509;-74
2023/04/04 01:20:12;;;;;;;5.00;1.80;;;;;;;;;;5011272;28;20072;-75
2023/04/04 01:22:59;;;;;;;3.92;2.15;;;;;;;;;;5022736;28;20022;-82
2023/04/04 01:25:45;;;;;;;4.43;1.58;;;;;;;;;;5016716;28;20125;-81
2023/04/04 01:28:30;;;;;;;4.85;2.00;;;;;;;;;;5000554;28;20052;-80
2023/04/04 01:31:18;;;;;;;4.00;2.42;;;;;;;;;;5023564;28;20056;-79
2023/04/04 01:34:08;;;;;;;3.13;1.58;;;;;;;;;;5009096;28;20034;-79
2023/04/04 01:37:02;;;;;;;3.88;1.38;;;;;;;;;;5033682;28;20124;-80
2023/04/04 01:39:48;;;;;;;5.85;1.80;;;;;;;;;;5023361;28;20033;-79
2023/04/04 01:42:34;;;;;;;4.95;1.83;;;;;;;;;;5018944;28;20022;-84
2023/04/04 01:45:21;;;;;;;3.33;1.40;;;;;;;;;;4998330;28;20044;-83
2023/04/04 01:48:07;;;;;;;4.57;1.70;;;;;;;;;;5013998;28;20026;-84
2023/04/04 01:50:53;;;;;;;3.55;1.50;;;;;;;;;;4995881;28;20042;-84
2023/04/04 01:53:38;;;;;;;8.07;1.67;;;;;;;;;;5021484;28;20014;-81
2023/04/04 01:56:23;;;;;;;4.80;2.60;;;;;;;;;;5012346;28;20018;-82
2023/04/04 01:59:08;;;;;;;4.15;1.92;;;;;;;;;;4996042;28;20045;-85
2023/04/04 02:01:54;;;;;;;4.70;1.45;;;;;;;;;;5019634;28;20025;-82
2023/04/04 02:04:39;;;;;;;3.97;1.85;;;;;;;;;;5009994;28;20485;-82
2023/04/04 02:07:24;;;;;;;4.75;2.03;;;;;;;;;;5003810;28;20101;-83
2023/04/04 02:10:10;;;;;;;4.65;1.90;;;;;;;;;;4979734;28;20018;-84
2023/04/04 02:12:55;;;;;;;8.65;1.95;;;;;;;;;;4997673;28;20130;-81
2023/04/04 02:15:40;;;;;;;7.38;2.00;;;;;;;;;;5016887;28;20033;-81
2023/04/04 02:18:25;;;;;;;3.47;1.83;;;;;;;;;;5011748;28;20046;-74
2023/04/04 02:21:11;;;;;;;2.97;1.90;;;;;;;;;;4997416;28;20037;-82
2023/04/04 02:23:56;;;;;;;5.00;1.65;;;;;;;;;;5011598;28;20026;-83
2023/04/04 02:26:41;;;;;;;3.22;1.90;;;;;;;;;;5018478;28;20100;-83
2023/04/04 02:29:26;;;;;;;3.30;1.40;;;;;;;;;;5012114;28;20034;-80
2023/04/04 02:32:11;;;;;;;3.53;1.67;;;;;;;;;;5005495;28;20019;-84
2023/04/04 02:34:57;;;;;;;3.60;1.55;;;;;;;;;;5035625;28;20049;-88
2023/04/04 02:37:46;;;;;;;2.22;1.70;;;;;;;;;;5020018;28;20030;-75
2023/04/04 02:40:38;;;;;;;6.97;2.60;;;;;;;;;;5014010;28;20025;-75
2023/04/04 02:43:23;;;;;;;4.90;1.90;;;;;;;;;;5006869;28;20029;-75
2023/04/04 02:46:08;;;;;;;6.72;1.90;;;;;;;;;;5026170;28;20148;-73
2023/04/04 02:48:53;;;;;;;5.35;2.03;;;;;;;;;;4998532;28;20022;-74
2023/04/04 02:51:39;;;;;;;3.22;1.77;;;;;;;;;;5009690;28;20120;-74
2023/04/04 02:54:24;;;;;;;4.13;2.10;;;;;;;;;;5015235;28;20021;-75
2023/04/04 02:57:10;;;;;;;2.78;1.60;;;;;;;;;;5006962;28;20040;-75
2023/04/04 02:59:55;;;;;;;3.63;1.80;;;;;;;;;;5004548;28;20096;-73
2023/04/04 03:02:40;;;;;;;5.32;1.90;;;;;;;;;;5009194;28;20029;-74
2023/04/04 03:05:26;;;;;;;4.28;1.83;;;;;;;;;;5007652;28;20041;-73
2023/04/04 03:08:11;;;;;;;3.17;1.45;;;;;;;;;;5026070;28;20101;-74
2023/04/04 03:10:56;;;;;;;4.53;2.35;;;;;;;;;;5013941;28;20092;-82
2023/04/04 03:13:42;;;;;;;6.22;2.42;;;;;;;;;;5029527;28;20027;-79
2023/04/04 03:16:28;;;;;;;5.70;1.75;;;;;;;;;;5022372;28;20073;-79
2023/04/04 03:19:13;;;;;;;4.00;1.67;;;;;;;;;;5018253;28;20136;-78
2023/04/04 03:21:58;;;;;;;4.65;2.40;;;;;;;;;;5016178;28;20032;-78
2023/04/04 03:24:43;;;;;;;4.43;2.00;;;;;;;;;;5016452;28;20676;-81
2023/04/04 03:27:32;;;;;;;4.85;2.10;;;;;;;;;;5017766;28;20031;-80
2023/04/04 03:30:17;;;;;;;3.55;1.83;;;;;;;;;;5014171;28;20096;-75
2023/04/04 03:33:08;;;;;;;5.07;1.88;;;;;;;;;;5012222;28;20052;-83
2023/04/04 03:35:55;;;;;;;4.07;2.13;;;;;;;;;;5021575;28;20065;-83
2023/04/04 03:38:40;;;;;;;5.90;2.47;;;;;;;;;;5005563;28;20037;-83
2023/04/04 03:41:25;;;;;;;4.03;2.10;;;;;;;;;;5031264;28;20497;-80
2023/04/04 03:44:10;;;;;;;6.18;1.90;;;;;;;;;;5018643;28;20021;-82
2023/04/04 03:46:56;;;;;;;3.67;2.00;;;;;;;;;;5018863;28;20022;-80
2023/04/04 03:49:41;;;;;;;4.55;2.03;;;;;;;;;;5015121;28;20523;-82
2023/04/04 03:52:26;;;;;;;4.18;1.90;;;;;;;;;;5016620;28;20014;-85
2023/04/04 03:55:11;;;;;;;2.67;1.60;;;;;;;;;;5025383;28;20056;-84
2023/04/04 03:57:57;;;;;;;6.40;2.42;;;;;;;;;;5034123;28;20108;-84
2023/04/04 04:00:43;;;;;;;4.32;2.55;;;;;;;;;;5029626;28;20044;-85
2023/04/04 04:03:28;;;;;;;4.10;1.63;;;;;;;;;;5008722;28;20067;-84
2023/04/04 04:06:13;;;;;;;4.53;2.15;;;;;;;;;;5023227;28;20037;-82
2023/04/04 04:08:58;;;;;;;10.07;2.60;;;;;;;;;;5047308;28;20064;-76
2023/04/04 04:11:43;;;;;;;4.70;2.45;;;;;;;;;;5004568;28;20036;-75
2023/04/04 04:14:29;;;;;;;6.65;2.20;;;;;;;;;;5027244;28;20112;-75
2023/04/04 04:17:14;;;;;;;3.22;2.20;;;;;;;;;;5026032;28;20032;-76
2023/04/04 04:19:59;;;;;;;4.43;1.95;;;;;;;;;;4997373;28;20034;-74
2023/04/04 04:22:46;;;;;;;6.10;2.47;;;;;;;;;;5009222;28;20076;-77
2023/04/04 04:25:31;;;;;;;3.35;1.55;;;;;;;;;;5021536;28;20420;-74
2023/04/04 04:28:16;;;;;;;6.35;2.50;;;;;;;;;;5014532;28;20053;-81
2023/04/04 04:31:08;;;;;;;4.43;2.08;;;;;;;;;;5023121;28;20037;-82
2023/04/04 04:33:53;;;;;;;4.13;2.03;;;;;;;;;;5000340;28;20048;-81
2023/04/04 04:36:39;;;;;;;5.90;2.10;;;;;;;;;;5013722;28;20049;-82
2023/04/04 04:39:24;;;;;;;3.25;1.88;;;;;;;;;;5007336;28;20157;-83
2023/04/04 04:42:09;;;;;;;5.50;1.95;;;;;;;;;;5016462;28;20029;-82
2023/04/04 04:44:55;;;;;;;6.88;1.90;;;;;;;;;;5026450;28;20473;-74
2023/04/04 04:47:40;;;;;;;6.57;2.20;;;;;;;;;;5029753;28;20029;-82
2023/04/04 04:50:26;;;;;;;4.32;2.40;;;;;;;;;;5024020;28;20018;-81
2023/04/04 04:53:11;;;;;;;4.65;2.15;;;;;;;;;;5004453;28;20042;-82
2023/04/04 04:55:56;;;;;;;5.18;2.03;;;;;;;;;;5035616;28;20076;-81
2023/04/04 04:58:43;;;;;;;3.80;1.90;;;;;;;;;;5015469;28;20034;-81
2023/04/04 05:01:29;;;;;;;4.10;2.63;;;;;;;;;;5008737;28;20038;-74
2023/04/04 05:04:16;;;;;;;4.03;2.58;;;;;;;;;;5008154;28;20504;-83
2023/04/04 05:07:01;;;;;;;6.32;2.42;;;;;;;;;;5006178;28;20055;-84
2023/04/04 05:09:47;;;;;;;10.63;2.50;;;;;;;;;;4992618;28;20876;-81
2023/04/04 05:12:32;;;;;;;6.93;2.83;;;;;;;;;;5009761;28;20041;-81
2023/04/04 05:15:17;;;;;;;4.20;2.22;;;;;;;;;;5020453;28;20048;-80
2023/04/04 05:18:02;;;;;;;7.35;2.85;;;;;;;;;;5012927;28;20089;-80
2023/04/04 05:20:52;;;;;;;3.28;2.15;;;;;;;;;;5008692;28;20234;-84
2023/04/04 05:23:37;;;;;;;;;;;;;;;;;;5010091;28;20212;-82
2023/04/04 05:26:23;;;;;;;6.45;2.90;;;;;;;;;;4999949;28;19913;-84
2023/04/04 05:29:08;;;;;;;6.13;2.40;;;;;;;;;;5005525;28;20037;-71
2023/04/04 05:31:54;;;;;;;3.97;2.20;;;;;;;;;;5011018;28;20037;-72
2023/04/04 05:34:39;;;;;;;6.43;2.67;;;;;;;;;;5010096;28;20116;-85
2023/04/04 05:37:25;;;;;;;5.60;2.60;;;;;;;;;;4996116;28;20037;-82
2023/04/04 05:40:10;;;;;;;5.20;2.55;;;;;;;;;;5027279;28;20133;-78
2023/04/04 05:42:56;;;;;;;4.10;2.22;;;;;;;;;;5017937;28;20506;-78
2023/04/04 05:45:41;;;;;;;6.25;3.33;;;;;;;;;;5024468;28;20423;-82
2023/04/04 05:48:26;;;;;;;4.18;2.70;;;;;;;;;;5027797;28;20030;-82
2023/04/04 05:51:11;;;;;;;5.53;2.70;;;;;;;;;;5017211;28;20029;-82
2023/04/04 05:53:57;;;;;;;4.50;2.35;;;;;;;;;;5030544;28;20095;-81
2023/04/04 05:56:42;;;;;;;9.32;3.05;;;;;;;;;;5029414;28;20040;-87
2023/04/04 05:59:27;;;;;;;5.03;2.28;;;;;;;;;;5031898;28;20033;-86
2023/04/04 06:02:13;;;;;;;4.55;2.58;;;;;;;;;;5035918;28;20080;-87
2023/04/04 06:04:58;;;;;;;7.40;2.65;;;;;;;;;;5041059;28;20033;-88
2023/04/04 06:07:43;;;;;;;4.25;2.72;;;;;;;;;;5031602;28;20026;-86
2023/04/04 06:10:28;;;;;;;5.60;2.90;;;;;;;;;;5020397;28;20034;-84
2023/04/04 06:13:14;;;;;;;5.57;2.72;;;;;;;;;;5018242;28;20082;-84
2023/04/04 06:16:00;;;;;;;7.97;2.78;;;;;;;;;;5011101;28;20022;-74
2023/04/04 06:18:45;;;;;;;5.82;2.63;;;;;;;;;;5024895;28;20556;-75
2023/04/04 06:21:30;;;;;;;8.63;3.45;;;;;;;;;;5018055;28;20061;-80
2023/04/04 06:24:15;;;;;;;5.35;2.40;;;;;;;;;;4993496;28;20026;-79
2023/04/04 06:27:01;;;;;;;9.05;3.15;;;;;;;;;;5005620;28;20030;-80
2023/04/04 06:29:46;;;;;;;6.70;2.40;;;;;;;;;;4992895;28;20042;-79
2023/04/04 06:32:32;;;;;;;6.95;2.92;;;;;;;;;;5001481;28;20047;-77
2023/04/04 06:35:18;;;;;;;7.88;3.33;;;;;;;;;;5005660;28;20088;-73
2023/04/04 06:38:04;;;;;;;10.18;3.38;;;;;;;;;;5007276;28;20033;-85
2023/04/04 06:40:49;;;;;;;6.35;2.30;;;;;;;;;;5022475;28;20041;-75
2023/04/04 06:43:34;;;;;;;6.10;3.00;;;;;;;;;;5023410;28;20022;-76
2023/04/04 06:46:20;;;;;;;6.80;3.17;;;;;;;;;;5015936;28;20034;-79
2023/04/04 06:49:05;;;;;;;4.68;2.58;;;;;;;;;;5003419;28;20022;-79
2023/04/04 06:51:51;;;;;;;5.45;2.63;;;;;;;;;;5004989;28;20038;-73
2023/04/04 06:54:36;;;;;;;6.07;2.70;;;;;;;;;;5001309;28;20030;-80
2023/04/04 06:57:21;;;;;;;5.68;2.95;;;;;;;;;;4994703;28;20030;-79
2023/04/04 07:00:08;;;;;;;8.90;2.60;;;;;;;;;;5009120;28;20400;-80
2023/04/04 07:02:57;;;;;;;6.22;2.53;;;;;;;;;;5009045;28;20108;-82
2023/04/04 07:05:43;;;;;;;;;;;;;;;;;;5006654;28;20605;-78
2023/04/04 07:08:28;;;;;;;7.00;2.50;;;;;;;;;;5009036;28;19916;-81
2023/04/04 07:11:13;;;;;;;7.00;2.40;;;;;;;;;;5005102;28;20052;-80
2023/04/04 07:13:59;;;;;;;3.28;2.22;;;;;;;;;;4995796;28;20427;-78
2023/04/04 07:16:44;;;;;;;4.80;2.30;;;;;;;;;;4997414;28;20088;-79
2023/04/04 07:19:30;;;;;;;5.00;2.40;;;;;;;;;;5011844;28;20038;-78
2023/04/04 07:22:15;;;;;;;7.13;2.78;;;;;;;;;;5007818;28;20421;-75
2023/04/04 07:25:00;;;;;;;11.35;2.90;;;;;;;;;;5008366;28;20056;-80
2023/04/04 07:27:46;;;;;;;4.35;2.42;;;;;;;;;;5008517;28;20024;-79
2023/04/04 07:30:32;;;;;;;6.43;2.55;;;;;;;;;;5008741;28;20031;-84
2023/04/04 07:33:17;;;;;;;4.20;2.47;;;;;;;;;;5006485;28;20063;-76
2023/04/04 07:36:02;;;;;;;6.28;2.60;;;;;;;;;;5005767;28;20065;-76
2023/04/04 07:38:47;;;;;;;5.13;2.42;;;;;;;;;;5007646;28;20034;-75
2023/04/04 07:41:33;;;;;;;8.60;2.05;;;;;;;;;;5023063;28;20030;-76
2023/04/04 07:44:18;;;;;;;6.25;2.63;;;;;;;;;;5016008;28;20033;-76
2023/04/04 07:47:03;;;;;;;5.65;2.13;;;;;;;;;;5007663;28;20566;-79
2023/04/04 07:49:48;;;;;;;6.28;2.70;;;;;;;;;;5006813;28;20069;-77
2023/04/04 07:52:34;;;;;;;5.63;2.50;;;;;;;;;;5007078;28;20528;-76
2023/04/04 07:55:19;;;;;;;5.63;2.45;;;;;;;;;;5006714;28;20045;-74
2023/04/04 07:58:05;;;;;;;7.50;2.65;;;;;;;;;;5007527;28;20029;-74
2023/04/04 08:00:50;;;;;;;4.82;2.25;;;;;;;;;;5006546;28;20034;-76
2023/04/04 08:03:35;;;;;;;4.35;2.40;;;;;;;;;;4993538;28;20481;-75
2023/04/04 08:06:21;;;;;;;8.10;2.92;;;;;;;;;;5006422;28;20033;-84
2023/04/04 08:09:06;;;;;;;4.13;1.80;;;;;;;;;;5007756;28;20508;-86
2023/04/04 08:11:52;;;;;;;6.13;2.50;;;;;;;;;;5009909;28;20040;-84
2023/04/04 08:14:37;;;;;;;8.77;2.50;;;;;;;;;;5007587;28;20125;-90
2023/04/04 08:17:23;;;;;;;7.20;2.30;;;;;;;;;;5008249;28;20044;-89
2023/04/04 08:20:09;;;;;;;5.32;2.55;;;;;;;;;;4997591;28;20133;-85
2023/04/04 08:22:55;;;;;;;6.65;2.70;;;;;;;;;;5011833;28;20117;-90
2023/04/04 08:25:40;;;;;;;5.60;2.50;;;;;;;;;;5006914;28;20030;-73
2023/04/04 08:28:26;;;;;;;6.85;2.67;;;;;;;;;;5021307;28;20014;-76
2023/04/04 08:31:11;;;;;;;5.53;2.55;;;;;;;;;;5010590;28;20033;-75
2023/04/04 08:33:56;;;;;;;6.03;2.67;;;;;;;;;;5016483;28;20418;-74
2023/04/04 08:36:42;;;;;;;7.60;2.45;;;;;;;;;;5009519;28;20038;-75
2023/04/04 08:39:27;;;;;;;6.35;2.60;;;;;;;;;;5011256;28;20081;-76
2023/04/04 08:42:15;;;;;;;3.70;2.10;;;;;;;;;;4983784;28;20027;-81
2023/04/04 08:45:03;;;;;;;4.97;2.40;;;;;;;;;;5000470;28;20026;-83
2023/04/04 08:47:49;;;;;;;3.92;2.28;;;;;;;;;;5008712;28;20425;-76
2023/04/04 08:50:34;;;;;;;6.53;2.40;;;;;;;;;;4996151;28;20061;-76
2023/04/04 08:53:20;;;;;;;6.65;2.55;;;;;;;;;;5010867;28;20041;-75
2023/04/04 08:56:05;;;;;;;5.07;2.53;;;;;;;;;;5013088;28;20084;-75
2023/04/04 08:58:51;;;;;;;6.80;2.22;;;;;;;;;;5009491;28;20034;-75
2023/04/04 09:01:36;;;;;;;4.70;2.47;;;;;;;;;;5007518;28;20021;-75
2023/04/04 09:04:22;;;;;;;6.40;3.08;;;;;;;;;;4995016;28;20061;-74
2023/04/04 09:07:08;;;;;;;3.28;2.40;;;;;;;;;;4995585;28;20440;-74
2023/04/04 09:09:54;;;;;;;5.35;2.50;;;;;;;;;;5009638;28;20144;-74
2023/04/04 09:12:41;;;;;;;5.13;1.95;;;;;;;;;;4991210;28;20026;-77
2023/04/04 09:15:27;;;;;;;4.75;2.22;;;;;;;;;;5005838;28;20374;-73
2023/04/04 09:18:12;;;;;;;3.30;2.38;;;;;;;;;;5009780;28;20461;-75
2023/04/04 09:20:58;;;;;;;6.35;2.55;;;;;;;;;;5010777;28;20034;-76
2023/04/04 09:23:43;;;;;;;6.10;2.13;;;;;;;;;;5004490;28;20465;-76
2023/04/04 09:26:45;;;;;;;7.13;2.40;;;;;;;;;;5009717;28;20121;-77
2023/04/04 09:29:32;;;;;;;3.50;2.30;;;;;;;;;;5003625;28;20041;-75
2023/04/04 09:32:19;;;;;;;7.95;2.38;;;;;;;;;;5010185;28;20026;-75
2023/04/04 09:35:05;;;;;;;6.03;2.47;;;;;;;;;;5009761;28;20103;-70
2023/04/04 09:37:51;;;;;;;5.75;3.00;;;;;;;;;;5008433;28;20056;-64
2023/04/04 09:40:36;;;;;;;5.38;2.75;;;;;;;;;;4996055;28;20172;-72
2023/04/04 09:43:23;;;;;;;8.85;2.55;;;;;;;;;;5007866;28;20700;-79
2023/04/04 09:46:08;;;;;;;6.47;2.33;;;;;;;;;;5025287;28;20598;-79
2023/04/04 09:48:54;;;;;;;4.20;2.25;;;;;;;;;;5008465;28;20026;-81
2023/04/04 09:51:41;;;;;;;4.40;2.70;;;;;;;;;;4982443;28;20037;-80
2023/04/04 09:54:26;;;;;;;5.63;2.22;;;;;;;;;;5008492;28;20378;-80
2023/04/04 09:57:11;;;;;;;5.22;2.50;;;;;;;;;;4996249;28;20018;-79
2023/04/04 10:00:00;;;;;;;7.20;3.10;;;;;;;;;;5001379;28;20117;-75
2023/04/04 10:02:46;;;;;;;4.57;2.40;;;;;;;;;;5007445;28;20525;-77
2023/04/04 10:05:32;;;;;;;3.85;1.80;;;;;;;;;;5006134;28;20022;-76
2023/04/04 10:08:20;;;;;;;4.50;2.20;;;;;;;;;;5008412;28;20026;-76
2023/04/04 10:11:06;;;;;;;6.10;2.58;;;;;;;;;;5007532;28;20034;-75
2023/04/04 10:13:52;;;;;;;3.33;2.35;;;;;;;;;;5008386;28;20048;-76
2023/04/04 10:16:43;;;;;;;6.00;2.40;;;;;;;;;;5010074;28;20032;-82
2023/04/04 10:19:28;;;;;;;5.03;2.55;;;;;;;;;;5009572;28;20301;-86
2023/04/04 10:22:15;;;;;;;6.25;2.03;;;;;;;;;;5005279;28;20033;-83
2023/04/04 10:25:00;;;;;;;4.88;2.35;;;;;;;;;;4993917;28;20445;-85
2023/04/04 10:27:45;;;;;;;4.20;2.30;;;;;;;;;;4987908;28;20104;-84
2023/04/04 10:30:36;;;;;;;4.30;2.47;;;;;;;;;;5007221;28;20029;-85
2023/04/04 10:33:29;;;;;;;5.45;2.50;;;;;;;;;;4994510;28;20030;-86
2023/04/04 10:36:20;;;;;;;4.63;2.40;;;;;;;;;;4997522;28;20061;-73
2023/04/04 10:39:08;;;;;;;4.53;2.42;;;;;;;;;;5002469;28;20029;-73
2023/04/04 10:41:55;;;;;;;4.00;2.20;;;;;;;;;;5010517;28;20026;-72
2023/04/04 10:44:40;;;;;;;4.53;2.60;;;;;;;;;;5006623;28;20022;-74
2023/04/04 10:47:25;;;;;;;6.10;3.22;;;;;;;;;;4993713;28;20030;-72
2023/04/04 10:50:11;;;;;;;5.80;2.75;;;;;;;;;;5007217;28;20084;-72
2023/04/04 10:52:58;;;;;;;4.25;2.72;;;;;;;;;;5007551;28;20063;-71
2023/04/04 10:55:45;;;;;;;2.65;2.25;;;;;;;;;;4994384;28;20113;-78
2023/04/04 10:58:30;;;;;;;7.13;2.28;;;;;;;;;;4994264;28;20548;-76
2023/04/04 11:01:19;;;;;;;4.40;2.40;;;;;;;;;;5008339;28;20030;-77
2023/04/04 11:04:04;;;;;;;;;;;;;;;;;;5007689;28;20018;-76
2023/04/04 11:07:05;;;;;;;5.53;2.88;;;;;;;;;;5007229;28;19992;-76
2023/04/04 11:09:54;;;;;;;4.53;2.20;;;;;;;;;;5020523;28;20032;-75
2023/04/04 11:12:44;;;;;;;5.65;2.20;;;;;;;;;;5007211;28;20056;-82
2023/04/04 11:15:44;;;;;;;4.50;1.90;;;;;;;;;;5007467;28;20030;-81
2023/04/04 11:18:45;;;;;;;3.83;2.33;;;;;;;;;;5005554;28;20445;-78
2023/04/04 11:21:31;;;;;;;4.28;2.33;;;;;;;;;;5006738;28;20441;-77
2023/04/04 11:24:16;;;;;;;4.38;2.40;;;;;;;;;;5004408;28;20030;-77
2023/04/04 11:27:01;;;;;;;7.68;3.88;;;;;;;;;;5006149;28;20022;-84
2023/04/04 11:29:51;;;;;;;6.30;2.70;;;;;;;;;;4995279;28;20076;-80
2023/04/04 11:32:46;;;;;;;4.38;2.25;;;;;;;;;;4994000;28;20065;-85
2023/04/04 11:35:31;;;;;;;5.75;2.42;;;;;;;;;;5007260;28;20037;-79
2023/04/04 11:38:18;;;;;;;4.97;2.75;;;;;;;;;;5020727;28;20076;-85
2023/04/04 11:41:04;;;;;;;4.38;2.28;;;;;;;;;;5009283;28;20103;-80
2023/04/04 11:43:49;;;;;;;6.63;2.42;;;;;;;;;;5009539;28;20034;-82
2023/04/04 11:46:34;;;;;;;6.80;3.25;;;;;;;;;;5006799;28;20473;-77
2023/04/04 11:49:24;;;;;;;5.25;2.58;;;;;;;;;;5007368;28;20029;-76
2023/04/04 11:52:13;;;;;;;5.85;2.47;;;;;;;;;;5006879;28;20041;-76
2023/04/04 11:54:58;;;;;;;3.90;2.43;;;;;;;;;;5006120;28;20026;-74
2023/04/04 11:57:45;;;;;;;6.18;2.78;;;;;;;;;;5005771;28;20538;-74
2023/04/04 12:00:30;;;;;;;5.25;2.15;;;;;;;;;;5007522;28;20038;-71
2023/04/04 12:03:17;;;;;;;7.18;2.45;;;;;;;;;;5006331;28;20552;-71
2023/04/04 12:06:02;;;;;;;5.35;2.08;;;;;;;;;;5009543;28;20129;-70
2023/04/04 12:08:47;;;;;;;5.47;2.30;;;;;;;;;;5010998;28;20050;-73
2023/04/04 12:11:33;;;;;;;5.00;2.42;;;;;;;;;;5009924;28;20115;-74
2023/04/04 12:14:19;;;;;;;6.82;3.25;;;;;;;;;;5006714;28;20033;-83
2023/04/04 12:17:05;;;;;;;3.78;2.47;;;;;;;;;;5008116;28;20069;-76
2023/04/04 12:19:50;;;;;;;4.28;2.63;;;;;;;;;;5008757;28;20041;-74
2023/04/04 12:22:36;;;;;;;8.38;2.75;;;;;;;;;;5010731;28;20033;-73
2023/04/04 12:25:23;;;;;;;6.93;2.60;;;;;;;;;;4997558;28;20030;-79
2023/04/04 12:28:09;;;;;;;4.93;2.47;;;;;;;;;;5004905;28;20539;-72
2023/04/04 12:30:55;;;;;;;7.35;3.40;;;;;;;;;;5011171;28;20037;-71
2023/04/04 12:33:41;;;;;;;5.93;2.42;;;;;;;;;;5009228;28;20033;-70
2023/04/04 12:36:28;;;;;;;6.40;2.47;;;;;;;;;;5010537;28;20077;-70
2023/04/04 12:39:14;;;;;;;6.15;2.88;;;;;;;;;;5011046;28;20029;-73
2023/04/04 12:42:03;;;;;;;5.97;3.17;;;;;;;;;;5012386;28;20188;-78
2023/04/04 12:44:49;;;;;;;5.78;2.90;;;;;;;;;;4995408;28;20057;-70
2023/04/04 12:47:35;;;;;;;4.72;2.42;;;;;;;;;;5021455;28;20030;-70
2023/04/04 12:50:26;;;;;;;6.82;3.00;;;;;;;;;;5010617;28;20448;-72
2023/04/04 12:53:11;;;;;;;6.30;2.53;;;;;;;;;;5009202;28;20032;-69
2023/04/04 12:56:08;;;;;;;5.88;2.25;;;;;;;;;;5005847;28;20557;-71
2023/04/04 12:58:58;;;;;;;5.32;2.88;;;;;;;;;;5009056;28;20030;-70
2023/04/04 13:01:44;;;;;;;5.32;2.22;;;;;;;;;;5010697;28;20033;-75
2023/04/04 13:04:30;;;;;;;9.02;2.67;;;;;;;;;;5007333;28;20365;-76
2023/04/04 13:07:26;;;;;;;7.03;2.58;;;;;;;;;;4995457;28;20040;-76
2023/04/04 13:10:13;;;;;;;6.13;2.90;;;;;;;;;;5020254;28;20037;-75
2023/04/04 13:12:59;;;;;;;6.20;2.75;;;;;;;;;;5008752;28;20030;-75
2023/04/04 13:15:51;;;;;;;4.43;2.20;;;;;;;;;;5008259;28;20062;-78
2023/04/04 13:18:38;;;;;;;5.45;2.70;;;;;;;;;;4996105;28;20393;-74
2023/04/04 13:21:23;;;;;;;5.90;2.60;;;;;;;;;;4994707;28;20044;-84
2023/04/04 13:24:09;;;;;;;4.10;2.15;;;;;;;;;;5024140;28;20030;-83
2023/04/04 13:26:54;;;;;;;6.10;3.15;;;;;;;;;;5010653;28;20048;-83
2023/04/04 13:29:39;;;;;;;5.00;2.50;;;;;;;;;;5010905;28;20028;-85
2023/04/04 13:32:24;;;;;;;3.90;2.10;;;;;;;;;;5008021;28;20586;-84
2023/04/04 13:35:11;;;;;;;3.70;2.33;;;;;;;;;;5009918;28;20770;-84
2023/04/04 13:37:56;;;;;;;4.50;2.78;;;;;;;;;;5022725;28;20030;-76
2023/04/04 13:40:42;;;;;;;5.60;3.05;;;;;;;;;;5010913;28;20436;-75
2023/04/04 13:43:27;;;;;;;4.00;2.63;;;;;;;;;;5010349;28;20057;-72
2023/04/04 13:46:12;;;;;;;5.72;2.70;;;;;;;;;;5008505;28;20484;-75
2023/04/04 13:48:57;;;;;;;3.45;2.22;;;;;;;;;;5009390;28;20076;-75
2023/04/04 13:51:42;;;;;;;5.10;2.45;;;;;;;;;;5003711;28;20040;-74
2023/04/04 13:54:28;;;;;;;4.45;2.40;;;;;;;;;;5008646;28;20034;-74
2023/04/04 13:57:13;;;;;;;4.68;2.30;;;;;;;;;;5007863;28;20022;-74
2023/04/04 13:59:58;;;;;;;6.72;3.05;;;;;;;;;;5007789;28;20089;-78
2023/04/04 14:02:43;;;;;;;3.15;2.08;;;;;;;;;;5008488;28;20101;-75
2023/04/04 14:05:29;;;;;;;5.55;2.15;;;;;;;;;;4998956;28;20480;-80
2023/04/04 14:08:14;;;;;;;5.63;2.40;;;;;;;;;;5011935;28;20032;-86
2023/04/04 14:10:59;;;;;;;6.70;2.40;;;;;;;;;;5011546;28;20037;-84
2023/04/04 14:13:45;;;;;;;5.97;2.67;;;;;;;;;;5009663;28;20473;-74
2023/04/04 14:16:30;;;;;;;3.95;2.55;;;;;;;;;;4994883;28;20072;-75
2023/04/04 14:19:16;;;;;;;7.35;2.85;;;;;;;;;;5007971;28;20507;-79
2023/04/04 14:22:01;;;;;;;16.02;5.30;;;;;;;;;;5007899;28;20183;-74
2023/04/04 14:24:46;;;;;;;4.25;2.85;;;;;;;;;;5006406;28;20038;-77
2023/04/04 14:27:31;;;;;;;7.53;2.90;;;;;;;;;;5007884;28;20054;-79
2023/04/04 14:30:16;;;;;;;6.15;2.95;;;;;;;;;;5009560;28;20662;-75
2023/04/04 14:33:02;;;;;;;4.45;2.38;;;;;;;;;;5007626;28;20034;-69
2023/04/04 14:35:47;;;;;;;3.40;2.58;;;;;;;;;;5008583;28;20531;-74
2023/04/04 14:38:32;;;;;;;6.00;3.22;;;;;;;;;;5007288;28;20022;-73
2023/04/04 14:41:17;;;;;;;6.68;2.75;;;;;;;;;;5010433;28;20034;-73
2023/04/04 14:44:03;;;;;;;4.30;2.38;;;;;;;;;;5000389;28;20040;-75
2023/04/04 14:46:50;;;;;;;4.72;2.83;;;;;;;;;;5008561;28;20062;-75
2023/04/04 14:49:35;;;;;;;6.70;3.00;;;;;;;;;;4995080;28;20025;-75
2023/04/04 14:52:21;;;;;;;4.88;2.55;;;;;;;;;;5007867;28;20485;-76
2023/04/04 14:55:06;;;;;;;4.25;2.40;;;;;;;;;;5011769;28;20107;-75
2023/04/04 14:57:52;;;;;;;6.00;2.95;;;;;;;;;;5011398;28;20499;-75
2023/04/04 15:00:38;;;;;;;3.55;2.53;;;;;;;;;;5006471;28;20053;-75
2023/04/04 15:03:23;;;;;;;6.15;3.03;;;;;;;;;;5005622;28;20038;-76
2023/04/04 15:06:08;;;;;;;4.72;2.67;;;;;;;;;;4994112;28;20608;-76
2023/04/04 15:08:54;;;;;;;4.03;2.22;;;;;;;;;;5007273;28;20054;-81
2023/04/04 15:11:39;;;;;;;3.67;2.20;;;;;;;;;;5008713;28;20025;-83
2023/04/04 15:14:25;;;;;;;4.63;2.40;;;;;;;;;;5008474;28;20172;-74
2023/04/04 15:17:11;;;;;;;6.15;2.65;;;;;;;;;;4994240;28;20030;-74
2023/04/04 15:19:56;;;;;;;6.55;2.67;;;;;;;;;;5020948;28;20037;-74
2023/04/04 15:22:42;;;;;;;8.02;3.17;;;;;;;;;;5006012;28;20053;-73
2023/04/04 15:25:28;;;;;;;5.85;2.53;;;;;;;;;;5009525;28;20090;-75
2023/04/04 15:28:13;;;;;;;5.50;2.47;;;;;;;;;;5008221;28;20477;-75
2023/04/04 15:31:02;;;;;;;4.65;2.75;;;;;;;;;;5008097;28;20140;-80
2023/04/04 15:33:47;;;;;;;4.68;2.63;;;;;;;;;;5004205;28;20084;-82
2023/04/04 15:36:33;;;;;;;5.95;3.05;;;;;;;;;;4969644;28;20495;-81
2023/04/04 15:39:18;;;;;;;4.72;2.83;;;;;;;;;;4967424;28;20061;-82
2023/04/04 15:42:03;;;;;;;5.95;2.40;;;;;;;;;;4981135;28;20027;-83
2023/04/04 15:44:48;;;;;;;5.60;2.72;;;;;;;;;;4983566;28;20041;-82
2023/04/04 15:47:34;;;;;;;8.10;2.83;;;;;;;;;;4976158;28;20212;-81
2023/04/04 15:50:19;;;;;;;6.00;3.03;;;;;;;;;;4969411;28;20121;-84
2023/04/04 15:53:04;;;;;;;4.88;2.72;;;;;;;;;;4967861;28;20050;-82
2023/04/04 15:55:49;;;;;;;8.27;2.58;;;;;;;;;;4982358;28;20438;-85
2023/04/04 15:58:35;;;;;;;8.07;3.00;;;;;;;;;;4971525;28;20534;-83
2023/04/04 16:01:20;;;;;;;7.25;2.40;;;;;;;;;;4976214;28;20128;-82
2023/04/04 16:04:06;;;;;;;5.28;3.28;;;;;;;;;;4969240;28;20624;-75
2023/04/04 16:06:51;;;;;;;4.25;2.22;;;;;;;;;;4972418;28;20030;-82
2023/04/04 16:09:36;;;;;;;7.63;2.50;;;;;;;;;;4961506;28;20034;-69
2023/04/04 16:12:21;;;;;;;4.28;2.30;;;;;;;;;;4962100;28;20089;-70
2023/04/04 16:15:07;;;;;;;5.60;2.90;;;;;;;;;;4981865;28;20394;-69
2023/04/04 16:17:52;;;;;;;3.72;2.35;;;;;;;;;;4964171;28;20100;-69
2023/04/04 16:20:37;;;;;;;7.00;2.67;;;;;;;;;;4968705;28;20561;-69
2023/04/04 16:23:23;;;;;;;8.95;2.83;;;;;;;;;;4966410;28;20041;-76
2023/04/04 16:26:09;;;;;;;6.38;2.78;;;;;;;;;;4968905;28;20642;-75
2023/04/04 16:28:54;;;;;;;6.20;2.38;;;;;;;;;;4980948;28;20398;-75
2023/04/04 16:31:40;;;;;;;7.28;3.53;;;;;;;;;;4968154;28;20034;-75
2023/04/04 16:34:25;;;;;;;5.50;2.53;;;;;;;;;;4975417;28;20042;-75